Time;durP1;ratioP1;P1;durP2;ratioP2;P2;SDS_P1;SDS_P2;PMS_P1;PMS_P2;Temp;Humidity;BMP_temperature;BMP_pressure;BME280_temperature;BME280_humidity;BME280_pressure;Samples;Min_cycle;Max_cycle;Signal;HPM_P1;HPM_P2
2023/11/19 00:02:25;;;;;;;6.20;5.80;;;;;;;;;;4948882;28;20221;-86
2023/11/19 00:04:55;;;;;;;3.27;3.07;;;;;;;;;;4959559;28;20222;-86
2023/11/19 00:07:20;;;;;;;2.67;2.47;;;;;;;;;;4937967;28;20290;-84
2023/11/19 00:09:49;;;;;;;2.73;2.60;;;;;;;;;;4943449;28;20245;-84
2023/11/19 00:12:18;;;;;;;3.10;2.90;;;;;;;;;;4939762;28;20234;-87
2023/11/19 00:14:46;;;;;;;2.50;2.40;;;;;;;;;;4956654;28;20261;-87
2023/11/19 00:17:15;;;;;;;3.13;2.93;;;;;;;;;;4953070;28;20218;-85
2023/11/19 00:19:41;;;;;;;2.63;2.50;;;;;;;;;;4950309;28;20228;-84
2023/11/19 00:22:09;;;;;;;2.90;2.70;;;;;;;;;;4955872;28;20238;-86
2023/11/19 00:24:37;;;;;;;2.63;2.50;;;;;;;;;;4955722;28;20675;-85
2023/11/19 00:27:04;;;;;;;2.60;2.40;;;;;;;;;;4955937;28;20218;-86
2023/11/19 00:29:30;;;;;;;2.73;2.53;;;;;;;;;;4936474;28;20699;-85
2023/11/19 00:31:56;;;;;;;2.60;2.50;;;;;;;;;;4949167;28;20230;-86
2023/11/19 00:34:24;;;;;;;2.77;2.57;;;;;;;;;;4940647;28;20228;-85
2023/11/19 00:36:52;;;;;;;2.33;2.23;;;;;;;;;;4971420;28;20225;-85
2023/11/19 00:39:18;;;;;;;2.83;2.47;;;;;;;;;;4955147;28;20214;-83
2023/11/19 00:41:46;;;;;;;2.17;2.07;;;;;;;;;;4955196;28;20221;-85
2023/11/19 00:44:16;;;;;;;2.60;2.40;;;;;;;;;;4954575;28;20229;-85
2023/11/19 00:46:41;;;;;;;2.40;2.23;;;;;;;;;;4957140;28;20210;-84
2023/11/19 00:49:07;;;;;;;2.10;1.87;;;;;;;;;;4970406;28;20225;-85
2023/11/19 00:51:35;;;;;;;2.20;2.10;;;;;;;;;;4939336;28;20206;-86
2023/11/19 00:54:08;;;;;;;2.07;1.97;;;;;;;;;;4970514;28;20636;-86
2023/11/19 00:56:33;;;;;;;2.10;2.00;;;;;;;;;;4945175;28;20230;-84
2023/11/19 00:59:00;;;;;;;1.90;1.80;;;;;;;;;;4947479;28;20714;-86
2023/11/19 01:01:26;;;;;;;2.00;1.90;;;;;;;;;;4956303;28;20232;-85
2023/11/19 01:03:53;;;;;;;2.20;2.10;;;;;;;;;;4966343;28;20232;-85
2023/11/19 01:06:27;;;;;;;2.00;1.90;;;;;;;;;;4947390;28;20225;-86
2023/11/19 01:08:56;;;;;;;2.27;2.17;;;;;;;;;;4961980;28;20225;-87
2023/11/19 01:11:25;;;;;;;1.87;1.77;;;;;;;;;;4943751;28;20236;-84
2023/11/19 01:13:53;;;;;;;2.00;1.90;;;;;;;;;;4957576;28;20356;-85
2023/11/19 01:16:18;;;;;;;2.03;1.93;;;;;;;;;;4961638;28;20229;-86
2023/11/19 01:18:50;;;;;;;2.33;2.10;;;;;;;;;;4960945;28;20225;-85
2023/11/19 01:21:18;;;;;;;2.20;2.10;;;;;;;;;;4963098;28;20217;-84
2023/11/19 01:23:43;;;;;;;2.00;1.90;;;;;;;;;;4956801;28;20609;-84
2023/11/19 01:26:12;;;;;;;2.20;2.10;;;;;;;;;;4953667;28;20297;-84
2023/11/19 01:28:42;;;;;;;2.40;2.30;;;;;;;;;;4954036;28;20233;-85
2023/11/19 01:31:08;;;;;;;2.40;2.30;;;;;;;;;;4960491;28;20225;-84
2023/11/19 01:33:36;;;;;;;2.33;2.23;;;;;;;;;;4960296;28;20214;-84
2023/11/19 01:36:02;;;;;;;2.40;2.30;;;;;;;;;;4965492;28;20233;-84
2023/11/19 01:38:28;;;;;;;2.37;2.27;;;;;;;;;;4956124;28;20248;-85
2023/11/19 01:40:58;;;;;;;2.57;2.47;;;;;;;;;;4945203;28;20292;-85
2023/11/19 01:43:34;;;;;;;2.40;2.30;;;;;;;;;;4926660;28;20613;-85
2023/11/19 01:46:03;;;;;;;2.70;2.53;;;;;;;;;;4945358;28;20309;-85
2023/11/19 01:48:29;;;;;;;4.67;2.47;;;;;;;;;;4954543;28;20223;-86
2023/11/19 01:50:57;;;;;;;2.33;2.23;;;;;;;;;;4941281;28;20211;-85
2023/11/19 01:53:29;;;;;;;2.30;2.20;;;;;;;;;;4961972;28;20289;-84
2023/11/19 01:55:57;;;;;;;2.73;2.63;;;;;;;;;;4973328;28;20218;-83
2023/11/19 01:58:29;;;;;;;2.67;2.50;;;;;;;;;;4957605;28;20887;-85
2023/11/19 02:00:55;;;;;;;2.47;2.37;;;;;;;;;;4945327;28;20229;-87
2023/11/19 02:03:21;;;;;;;2.70;2.57;;;;;;;;;;4947059;28;20218;-85
2023/11/19 02:05:48;;;;;;;2.67;2.47;;;;;;;;;;4927164;28;20218;-88
2023/11/19 02:08:16;;;;;;;2.50;2.40;;;;;;;;;;4926072;28;20596;-85
2023/11/19 02:10:44;;;;;;;2.50;2.40;;;;;;;;;;4958560;28;20222;-87
2023/11/19 02:13:10;;;;;;;2.20;2.10;;;;;;;;;;4960729;28;20682;-85
2023/11/19 02:15:35;;;;;;;2.57;2.40;;;;;;;;;;4979533;28;20592;-85
2023/11/19 02:18:30;;;;;;;3.17;2.63;;;;;;;;;;4963456;28;20267;-85
2023/11/19 02:20:57;;;;;;;2.80;2.20;;;;;;;;;;4945990;28;20257;-85
2023/11/19 02:23:22;;;;;;;2.23;2.13;;;;;;;;;;4937293;28;20227;-84
2023/11/19 02:26:08;;;;;;;5.13;2.33;;;;;;;;;;4939974;28;20222;-87
2023/11/19 02:28:36;;;;;;;1.93;1.83;;;;;;;;;;4968971;28;20280;-83
2023/11/19 02:31:04;;;;;;;3.67;2.00;;;;;;;;;;4938216;29;20223;-83
2023/11/19 02:33:32;;;;;;;1.70;1.60;;;;;;;;;;4959023;28;20227;-85
2023/11/19 02:36:01;;;;;;;1.50;1.40;;;;;;;;;;4941444;28;20309;-85
2023/11/19 02:38:26;;;;;;;2.80;1.63;;;;;;;;;;4939977;28;20229;-85
2023/11/19 02:40:52;;;;;;;1.50;1.40;;;;;;;;;;4957396;28;20230;-83
2023/11/19 02:43:17;;;;;;;1.60;1.50;;;;;;;;;;4941399;28;20477;-86
2023/11/19 02:45:46;;;;;;;1.70;1.60;;;;;;;;;;4949793;28;20247;-84
2023/11/19 02:48:15;;;;;;;1.57;1.47;;;;;;;;;;4969423;28;20713;-83
2023/11/19 02:50:42;;;;;;;1.77;1.67;;;;;;;;;;4956781;28;20237;-86
2023/11/19 02:53:07;;;;;;;1.67;1.50;;;;;;;;;;4939939;28;20214;-85
2023/11/19 02:55:37;;;;;;;1.73;1.30;;;;;;;;;;4958464;28;20221;-86
2023/11/19 02:58:09;;;;;;;3.40;1.87;;;;;;;;;;4940214;28;20612;-85
2023/11/19 03:00:47;;;;;;;1.63;1.53;;;;;;;;;;4956627;28;20615;-87
2023/11/19 03:03:20;;;;;;;1.70;1.60;;;;;;;;;;4946805;28;20244;-87
2023/11/19 03:05:48;;;;;;;1.90;1.80;;;;;;;;;;4938584;28;20599;-85
2023/11/19 03:08:16;;;;;;;1.57;1.47;;;;;;;;;;4955096;28;20313;-87
2023/11/19 03:10:42;;;;;;;1.50;1.40;;;;;;;;;;4955798;28;20229;-84
2023/11/19 03:13:11;;;;;;;1.60;1.50;;;;;;;;;;4976297;28;20229;-83
2023/11/19 03:15:37;;;;;;;1.50;1.40;;;;;;;;;;4977090;28;20224;-85
2023/11/19 03:18:05;;;;;;;1.53;1.53;;;;;;;;;;4961156;28;20229;-86
2023/11/19 03:20:33;;;;;;;2.40;2.30;;;;;;;;;;4932582;28;20332;-84
2023/11/19 03:23:02;;;;;;;2.30;2.10;;;;;;;;;;4962937;28;20235;-83
2023/11/19 03:25:33;;;;;;;2.30;2.20;;;;;;;;;;4974133;28;20234;-83
2023/11/19 03:28:03;;;;;;;3.80;2.97;;;;;;;;;;4931146;28;20221;-83
2023/11/19 03:30:32;;;;;;;4.53;4.00;;;;;;;;;;4924537;28;20271;-87
2023/11/19 03:32:58;;;;;;;4.97;4.57;;;;;;;;;;4940602;28;20222;-85
2023/11/19 03:35:26;;;;;;;5.50;5.13;;;;;;;;;;4960655;28;20221;-86
2023/11/19 03:37:53;;;;;;;6.60;6.20;;;;;;;;;;4957747;28;20707;-83
2023/11/19 03:40:19;;;;;;;7.97;7.37;;;;;;;;;;4959104;28;20233;-85
2023/11/19 03:42:48;;;;;;;8.70;8.00;;;;;;;;;;4946651;28;20221;-84
2023/11/19 03:45:16;;;;;;;10.30;9.40;;;;;;;;;;4946305;28;20222;-85
2023/11/19 03:47:41;;;;;;;9.87;9.07;;;;;;;;;;4960946;28;20643;-83
2023/11/19 03:50:15;;;;;;;12.07;11.17;;;;;;;;;;4979008;28;20221;-85
2023/11/19 03:52:45;;;;;;;12.63;11.63;;;;;;;;;;4960625;28;20670;-85
2023/11/19 03:55:14;;;;;;;13.03;12.03;;;;;;;;;;4941818;28;20214;-85
2023/11/19 03:57:39;;;;;;;13.33;12.23;;;;;;;;;;4959204;28;20218;-83
2023/11/19 04:03:51;;;;;;;14.10;13.00;;;;;;;;;;4977039;28;20808;-84
2023/11/19 04:06:17;;;;;;;16.27;14.70;;;;;;;;;;4953393;28;20233;-84
2023/11/19 04:08:45;;;;;;;16.90;15.20;;;;;;;;;;4958837;28;20700;-83
2023/11/19 04:11:15;;;;;;;16.13;14.77;;;;;;;;;;4944527;28;20233;-85
2023/11/19 04:13:41;;;;;;;16.87;15.40;;;;;;;;;;4944852;28;20230;-85
2023/11/19 04:16:09;;;;;;;17.07;15.57;;;;;;;;;;4956176;28;20237;-83
2023/11/19 04:18:34;;;;;;;18.27;16.57;;;;;;;;;;4956439;28;20222;-84
2023/11/19 04:21:00;;;;;;;18.10;16.50;;;;;;;;;;4956171;28;20222;-83
2023/11/19 04:23:28;;;;;;;18.83;17.07;;;;;;;;;;4939106;28;20223;-83
2023/11/19 04:25:54;;;;;;;19.40;17.60;;;;;;;;;;4969442;28;20231;-84
2023/11/19 04:28:19;;;;;;;20.30;18.40;;;;;;;;;;4966671;28;20266;-84
2023/11/19 04:30:45;;;;;;;19.47;17.57;;;;;;;;;;4949236;28;20342;-82
2023/11/19 04:33:10;;;;;;;20.17;18.27;;;;;;;;;;4956211;28;20278;-82
2023/11/19 04:35:38;;;;;;;20.53;18.43;;;;;;;;;;4963184;28;20596;-82
2023/11/19 04:38:06;;;;;;;25.10;20.33;;;;;;;;;;4977366;28;20198;-83
2023/11/19 04:40:33;;;;;;;22.60;20.40;;;;;;;;;;4959647;28;20217;-83
2023/11/19 04:42:59;;;;;;;22.20;19.90;;;;;;;;;;4944390;28;20345;-83
2023/11/19 04:45:24;;;;;;;24.73;22.20;;;;;;;;;;4956648;28;20277;-83
2023/11/19 04:47:52;;;;;;;25.07;21.27;;;;;;;;;;4971831;28;20226;-83
2023/11/19 04:50:18;;;;;;;32.17;23.23;;;;;;;;;;4979580;28;20222;-82
2023/11/19 04:52:45;;;;;;;25.30;22.67;;;;;;;;;;4978752;28;20226;-85
2023/11/19 04:55:14;;;;;;;26.60;23.53;;;;;;;;;;4959806;28;20229;-84
2023/11/19 04:57:43;;;;;;;28.77;25.67;;;;;;;;;;4944634;28;20285;-86
2023/11/19 05:00:11;;;;;;;29.17;25.73;;;;;;;;;;4962278;28;20218;-84
2023/11/19 05:02:37;;;;;;;34.50;28.43;;;;;;;;;;4944444;28;20245;-84
2023/11/19 05:05:05;;;;;;;33.57;28.23;;;;;;;;;;4973850;28;20246;-84
2023/11/19 05:07:35;;;;;;;36.60;29.30;;;;;;;;;;4963808;28;20233;-85
2023/11/19 05:10:01;;;;;;;34.37;29.53;;;;;;;;;;4940879;28;20214;-83
2023/11/19 05:12:27;;;;;;;35.33;30.00;;;;;;;;;;4936023;28;20295;-83
2023/11/19 05:14:52;;;;;;;41.67;30.90;;;;;;;;;;4959213;28;20773;-83
2023/11/19 05:17:21;;;;;;;35.90;30.37;;;;;;;;;;4942062;28;20224;-83
2023/11/19 05:19:51;;;;;;;36.00;29.60;;;;;;;;;;4975311;28;20288;-84
2023/11/19 05:22:20;;;;;;;41.80;32.90;;;;;;;;;;4962341;28;20309;-82
2023/11/19 05:24:45;;;;;;;37.67;31.37;;;;;;;;;;4955042;28;20238;-82
2023/11/19 05:27:12;;;;;;;42.53;33.33;;;;;;;;;;4953471;28;20230;-83
2023/11/19 05:29:43;;;;;;;40.07;32.33;;;;;;;;;;4968260;28;20284;-83
2023/11/19 05:32:12;;;;;;;45.17;32.50;;;;;;;;;;4941230;28;20226;-83
2023/11/19 05:34:37;;;;;;;40.33;33.33;;;;;;;;;;4928410;28;20230;-82
2023/11/19 05:37:05;;;;;;;39.70;34.03;;;;;;;;;;4957852;28;20214;-82
2023/11/19 05:39:31;;;;;;;40.10;33.60;;;;;;;;;;4957171;28;20228;-83
2023/11/19 05:41:56;;;;;;;47.43;34.77;;;;;;;;;;4944382;28;20226;-83
2023/11/19 05:44:25;;;;;;;41.70;33.90;;;;;;;;;;4945067;28;20226;-85
2023/11/19 05:46:50;;;;;;;43.40;34.13;;;;;;;;;;4960640;28;21053;-84
2023/11/19 05:49:16;;;;;;;47.90;35.20;;;;;;;;;;4942787;28;20226;-84
2023/11/19 05:51:44;;;;;;;44.37;35.63;;;;;;;;;;4959551;28;20229;-83
2023/11/19 05:54:13;;;;;;;44.00;35.67;;;;;;;;;;4943941;28;20222;-83
2023/11/19 05:56:38;;;;;;;44.73;35.57;;;;;;;;;;4945462;28;20238;-84
2023/11/19 05:59:09;;;;;;;42.93;34.67;;;;;;;;;;4974544;28;20695;-82
2023/11/19 06:01:34;;;;;;;42.93;35.13;;;;;;;;;;4957644;28;20286;-83
2023/11/19 06:04:02;;;;;;;43.37;34.90;;;;;;;;;;4945048;28;20241;-83
2023/11/19 06:06:28;;;;;;;39.63;34.77;;;;;;;;;;4944941;28;20215;-82
2023/11/19 06:08:54;;;;;;;50.67;36.70;;;;;;;;;;4943904;28;20229;-83
2023/11/19 06:11:20;;;;;;;42.07;34.60;;;;;;;;;;4972105;28;20227;-83
2023/11/19 06:13:50;;;;;;;43.17;34.70;;;;;;;;;;4958867;28;20668;-83
2023/11/19 06:16:22;;;;;;;47.80;35.73;;;;;;;;;;4945786;28;20229;-82
2023/11/19 06:18:48;;;;;;;45.40;35.60;;;;;;;;;;4958448;28;20218;-82
2023/11/19 06:21:13;;;;;;;42.00;35.00;;;;;;;;;;4979363;28;20234;-82
2023/11/19 06:23:42;;;;;;;41.83;36.87;;;;;;;;;;4958821;28;20238;-82
2023/11/19 06:26:08;;;;;;;48.03;33.97;;;;;;;;;;4939884;28;20614;-85
2023/11/19 06:28:36;;;;;;;40.83;35.53;;;;;;;;;;4928491;28;20232;-82
2023/11/19 06:31:03;;;;;;;42.97;34.50;;;;;;;;;;4960379;28;20221;-85
2023/11/19 06:33:30;;;;;;;41.83;33.60;;;;;;;;;;4942846;28;20222;-82
2023/11/19 06:35:59;;;;;;;43.83;33.17;;;;;;;;;;4975938;28;20214;-82
2023/11/19 06:38:25;;;;;;;43.67;30.10;;;;;;;;;;4943517;28;20221;-85
2023/11/19 06:40:57;;;;;;;39.47;29.77;;;;;;;;;;4958657;28;20647;-83
2023/11/19 06:43:23;;;;;;;41.30;29.60;;;;;;;;;;4925514;28;20649;-84
2023/11/19 06:45:49;;;;;;;34.83;28.43;;;;;;;;;;4960087;28;20218;-83
2023/11/19 06:48:17;;;;;;;42.77;29.23;;;;;;;;;;4978484;28;20233;-83
2023/11/19 06:50:44;;;;;;;38.77;27.10;;;;;;;;;;4959535;28;20483;-84
2023/11/19 06:53:13;;;;;;;36.03;26.57;;;;;;;;;;4978734;28;20219;-83
2023/11/19 06:55:43;;;;;;;39.87;27.47;;;;;;;;;;4962780;28;20222;-83
2023/11/19 06:58:12;;;;;;;37.00;26.53;;;;;;;;;;4962605;28;20245;-84
2023/11/19 07:00:37;;;;;;;38.07;25.90;;;;;;;;;;4950266;28;20230;-85
2023/11/19 07:03:03;;;;;;;39.33;27.07;;;;;;;;;;4961189;28;20261;-85
2023/11/19 07:05:35;;;;;;;39.13;26.43;;;;;;;;;;4946824;28;20230;-83
2023/11/19 07:08:01;;;;;;;37.53;24.57;;;;;;;;;;4941892;28;20230;-85
2023/11/19 07:10:29;;;;;;;42.63;24.90;;;;;;;;;;4944345;28;20218;-84
2023/11/19 07:12:56;;;;;;;37.10;23.07;;;;;;;;;;4973245;28;20222;-85
2023/11/19 07:15:21;;;;;;;33.60;20.77;;;;;;;;;;4943236;28;20225;-83
2023/11/19 07:17:54;;;;;;;39.20;21.87;;;;;;;;;;4975982;28;20229;-85
2023/11/19 07:20:19;;;;;;;32.97;20.07;;;;;;;;;;4972299;28;20237;-85
2023/11/19 07:22:50;;;;;;;39.70;18.73;;;;;;;;;;4959420;28;20652;-84
2023/11/19 07:25:16;;;;;;;42.57;18.77;;;;;;;;;;4961960;28;20225;-84
2023/11/19 07:27:42;;;;;;;30.37;15.90;;;;;;;;;;4941066;28;20218;-87
2023/11/19 07:30:10;;;;;;;29.43;17.40;;;;;;;;;;4924807;28;20237;-84
2023/11/19 07:32:38;;;;;;;31.70;16.40;;;;;;;;;;4925325;28;20276;-83
2023/11/19 07:35:07;;;;;;;29.13;15.77;;;;;;;;;;4969331;28;20214;-85
2023/11/19 07:37:32;;;;;;;31.10;14.87;;;;;;;;;;4955477;28;20214;-83
2023/11/19 07:39:58;;;;;;;31.70;15.10;;;;;;;;;;4956187;28;20214;-83
2023/11/19 07:42:26;;;;;;;34.43;14.90;;;;;;;;;;4953429;28;20596;-83
2023/11/19 07:44:51;;;;;;;36.90;14.80;;;;;;;;;;4955743;28;20242;-82
2023/11/19 07:47:23;;;;;;;35.20;14.23;;;;;;;;;;4974134;28;20338;-83
2023/11/19 07:49:51;;;;;;;30.97;13.13;;;;;;;;;;4957500;28;20241;-82
2023/11/19 07:52:22;;;;;;;32.60;12.83;;;;;;;;;;4972497;28;20317;-85
2023/11/19 07:54:47;;;;;;;27.43;12.80;;;;;;;;;;4973953;28;20222;-84
2023/11/19 07:57:13;;;;;;;30.00;12.97;;;;;;;;;;4936536;28;20222;-84
2023/11/19 07:59:40;;;;;;;27.00;11.50;;;;;;;;;;4942807;28;20221;-83
2023/11/19 08:02:09;;;;;;;27.30;11.20;;;;;;;;;;4975375;28;20264;-83
2023/11/19 08:04:34;;;;;;;25.67;11.10;;;;;;;;;;4940864;28;20301;-83
2023/11/19 08:07:00;;;;;;;27.47;10.27;;;;;;;;;;4970627;28;20222;-85
2023/11/19 08:09:25;;;;;;;24.57;10.67;;;;;;;;;;4972179;28;20218;-83
2023/11/19 08:11:51;;;;;;;24.83;9.27;;;;;;;;;;4955789;28;20222;-83
2023/11/19 08:14:18;;;;;;;28.37;10.27;;;;;;;;;;4971442;28;20218;-83
2023/11/19 08:16:44;;;;;;;28.30;9.73;;;;;;;;;;4971866;28;20226;-85
2023/11/19 08:19:09;;;;;;;24.67;9.97;;;;;;;;;;4952956;28;20222;-82
2023/11/19 08:21:37;;;;;;;35.63;9.97;;;;;;;;;;4956309;28;20241;-84
2023/11/19 08:24:03;;;;;;;29.50;10.30;;;;;;;;;;4960018;28;20218;-83
2023/11/19 08:26:29;;;;;;;18.47;8.10;;;;;;;;;;4971379;28;20276;-83
2023/11/19 08:28:57;;;;;;;29.33;7.77;;;;;;;;;;4941672;28;20704;-82
2023/11/19 08:31:26;;;;;;;19.83;7.70;;;;;;;;;;4926431;28;20256;-83
2023/11/19 08:33:51;;;;;;;20.27;6.87;;;;;;;;;;4952630;28;20273;-83
2023/11/19 08:36:19;;;;;;;16.63;6.47;;;;;;;;;;4952751;28;20237;-84
2023/11/19 08:38:45;;;;;;;20.27;6.73;;;;;;;;;;4941060;28;20234;-84
2023/11/19 08:41:10;;;;;;;26.27;7.17;;;;;;;;;;4954939;28;20229;-83
2023/11/19 08:43:39;;;;;;;17.67;6.60;;;;;;;;;;4965482;28;20229;-84
2023/11/19 08:46:09;;;;;;;19.50;7.10;;;;;;;;;;4968910;28;20233;-83
2023/11/19 08:48:37;;;;;;;20.13;7.07;;;;;;;;;;4951656;28;20237;-84
2023/11/19 08:51:05;;;;;;;21.87;8.10;;;;;;;;;;4961008;28;20210;-83
2023/11/19 08:53:31;;;;;;;22.40;7.73;;;;;;;;;;4937917;28;20510;-85
2023/11/19 08:56:02;;;;;;;28.67;8.90;;;;;;;;;;4954790;28;20225;-85
2023/11/19 08:58:33;;;;;;;30.50;8.67;;;;;;;;;;4954687;28;20958;-82
2023/11/19 09:00:58;;;;;;;27.13;7.87;;;;;;;;;;4951743;28;20219;-86
2023/11/19 09:03:26;;;;;;;30.53;9.23;;;;;;;;;;4956617;28;20226;-84
2023/11/19 09:05:52;;;;;;;33.57;9.13;;;;;;;;;;4946691;28;20268;-83
2023/11/19 09:08:20;;;;;;;23.43;7.83;;;;;;;;;;4972446;28;20249;-82
2023/11/19 09:10:48;;;;;;;32.40;8.47;;;;;;;;;;4946794;28;20620;-82
2023/11/19 09:13:13;;;;;;;24.43;8.67;;;;;;;;;;4959509;28;20230;-86
2023/11/19 09:15:42;;;;;;;25.73;9.00;;;;;;;;;;4958425;28;20706;-83
2023/11/19 09:18:10;;;;;;;33.90;8.77;;;;;;;;;;4928818;28;20698;-83
2023/11/19 09:20:38;;;;;;;24.97;6.63;;;;;;;;;;4941686;28;20230;-83
2023/11/19 09:23:05;;;;;;;22.60;6.97;;;;;;;;;;4958142;28;20222;-82
2023/11/19 09:25:31;;;;;;;20.27;6.27;;;;;;;;;;4934433;28;20230;-82
2023/11/19 09:27:56;;;;;;;22.30;6.73;;;;;;;;;;4959687;28;20218;-83
2023/11/19 09:30:22;;;;;;;16.73;5.70;;;;;;;;;;4941777;28;20222;-84
2023/11/19 09:32:50;;;;;;;17.50;6.07;;;;;;;;;;4972807;28;20317;-83
2023/11/19 09:35:16;;;;;;;15.03;5.93;;;;;;;;;;4959179;28;20221;-82
2023/11/19 09:37:42;;;;;;;17.50;5.77;;;;;;;;;;4942093;28;20221;-83
2023/11/19 09:40:11;;;;;;;19.70;5.33;;;;;;;;;;4957203;28;20226;-84
2023/11/19 09:42:44;;;;;;;23.33;5.80;;;;;;;;;;4974004;28;20249;-83
2023/11/19 09:45:13;;;;;;;20.47;5.87;;;;;;;;;;4941095;28;20238;-83
2023/11/19 09:47:40;;;;;;;14.10;5.00;;;;;;;;;;4925705;28;20277;-86
2023/11/19 09:50:08;;;;;;;17.13;5.10;;;;;;;;;;4957712;28;20261;-85
2023/11/19 09:52:33;;;;;;;17.83;5.43;;;;;;;;;;4945689;28;20868;-83
2023/11/19 09:54:59;;;;;;;19.00;5.40;;;;;;;;;;4957792;28;20237;-84
2023/11/19 09:57:26;;;;;;;15.17;4.77;;;;;;;;;;4959067;28;20237;-84
2023/11/19 09:59:54;;;;;;;15.30;4.97;;;;;;;;;;4943615;28;20225;-84
2023/11/19 10:02:26;;;;;;;16.47;4.73;;;;;;;;;;4974317;28;20241;-82
2023/11/19 10:04:54;;;;;;;16.97;5.00;;;;;;;;;;4959581;28;20272;-83
2023/11/19 10:07:22;;;;;;;19.77;4.87;;;;;;;;;;4960147;28;20218;-84
2023/11/19 10:09:47;;;;;;;19.70;4.87;;;;;;;;;;4928108;28;20288;-83
2023/11/19 10:12:13;;;;;;;18.53;4.97;;;;;;;;;;4958179;28;20245;-82
2023/11/19 10:14:39;;;;;;;19.70;4.60;;;;;;;;;;4958363;28;20308;-82
2023/11/19 10:17:09;;;;;;;18.60;5.00;;;;;;;;;;4943374;28;20210;-83
2023/11/19 10:19:35;;;;;;;16.87;5.40;;;;;;;;;;4959932;28;20229;-84
2023/11/19 10:22:04;;;;;;;12.87;5.60;;;;;;;;;;4959906;28;20238;-78
2023/11/19 10:24:33;;;;;;;16.07;5.37;;;;;;;;;;4926747;28;20361;-78
2023/11/19 10:27:03;;;;;;;20.20;5.60;;;;;;;;;;4956651;28;20218;-78
2023/11/19 10:29:29;;;;;;;15.77;5.10;;;;;;;;;;4940693;28;20313;-78
2023/11/19 10:31:59;;;;;;;17.07;5.17;;;;;;;;;;4957170;28;20214;-78
2023/11/19 10:34:27;;;;;;;19.37;5.80;;;;;;;;;;4956602;28;20704;-79
2023/11/19 10:36:53;;;;;;;15.40;4.50;;;;;;;;;;4956916;28;20297;-78
2023/11/19 10:39:18;;;;;;;16.87;5.23;;;;;;;;;;4953497;28;20278;-79
2023/11/19 10:41:46;;;;;;;19.77;5.27;;;;;;;;;;4968969;28;20230;-79
2023/11/19 10:44:12;;;;;;;21.37;5.37;;;;;;;;;;4956432;28;20280;-76
2023/11/19 10:46:41;;;;;;;18.47;6.43;;;;;;;;;;4939413;28;20226;-77
2023/11/19 10:49:07;;;;;;;16.83;5.70;;;;;;;;;;4939117;28;20249;-78
2023/11/19 10:51:32;;;;;;;25.80;6.60;;;;;;;;;;4955224;28;20229;-78
2023/11/19 10:54:05;;;;;;;20.87;6.17;;;;;;;;;;4961113;28;20222;-77
2023/11/19 10:56:32;;;;;;;19.77;6.13;;;;;;;;;;4983035;28;20225;-74
2023/11/19 10:58:59;;;;;;;28.50;6.03;;;;;;;;;;4999279;28;20219;-76
2023/11/19 11:01:25;;;;;;;14.13;5.70;;;;;;;;;;4958228;28;20236;-77
2023/11/19 11:03:52;;;;;;;18.97;6.17;;;;;;;;;;4962363;28;20226;-77
2023/11/19 11:06:17;;;;;;;24.20;6.17;;;;;;;;;;4980557;28;20253;-77
2023/11/19 11:08:43;;;;;;;25.63;6.00;;;;;;;;;;4962247;28;20636;-77
2023/11/19 11:11:11;;;;;;;20.70;5.83;;;;;;;;;;4976191;28;20228;-77
2023/11/19 11:13:37;;;;;;;21.53;6.73;;;;;;;;;;4969353;28;20276;-78
2023/11/19 11:16:07;;;;;;;17.73;5.60;;;;;;;;;;4953979;28;20214;-77
2023/11/19 11:18:38;;;;;;;21.83;5.77;;;;;;;;;;4955433;28;20229;-78
2023/11/19 11:21:05;;;;;;;18.53;5.67;;;;;;;;;;4937925;28;20288;-76
2023/11/19 11:24:06;;;;;;;18.70;6.27;;;;;;;;;;4969333;28;20308;-77
2023/11/19 11:26:53;;;;;;;20.30;5.70;;;;;;;;;;4970304;28;20221;-77
2023/11/19 11:29:22;;;;;;;17.47;6.07;;;;;;;;;;4969785;28;20284;-78
2023/11/19 11:32:13;;;;;;;17.93;5.60;;;;;;;;;;4969547;28;20218;-78
2023/11/19 11:34:53;;;;;;;17.17;5.90;;;;;;;;;;4974410;28;20214;-78
2023/11/19 11:37:27;;;;;;;23.53;7.00;;;;;;;;;;4939303;28;20238;-80
2023/11/19 11:39:59;;;;;;;19.70;6.67;;;;;;;;;;4943875;28;20218;-78
2023/11/19 11:42:27;;;;;;;21.23;6.77;;;;;;;;;;4974073;28;20234;-78
2023/11/19 11:45:07;;;;;;;19.87;6.20;;;;;;;;;;4958857;28;20226;-80
2023/11/19 11:47:56;;;;;;;19.33;6.03;;;;;;;;;;4987827;28;20256;-78
2023/11/19 11:50:22;;;;;;;19.30;6.23;;;;;;;;;;4941909;28;20395;-79
2023/11/19 11:52:59;;;;;;;18.80;5.73;;;;;;;;;;4952788;28;20381;-80
2023/11/19 11:55:40;;;;;;;18.70;5.63;;;;;;;;;;4966407;28;20601;-79
2023/11/19 11:58:05;;;;;;;15.23;5.47;;;;;;;;;;4956300;28;20246;-78
2023/11/19 12:00:43;;;;;;;17.57;5.50;;;;;;;;;;4971131;28;20763;-79
2023/11/19 12:03:08;;;;;;;26.10;6.13;;;;;;;;;;4952968;28;20241;-79
2023/11/19 12:05:38;;;;;;;17.20;5.50;;;;;;;;;;4969461;28;20214;-80
2023/11/19 12:08:06;;;;;;;15.53;5.83;;;;;;;;;;4974181;28;20215;-87
2023/11/19 12:10:52;;;;;;;18.90;6.17;;;;;;;;;;4974834;28;20222;-87
2023/11/19 12:13:24;;;;;;;18.07;4.97;;;;;;;;;;4964904;28;20285;-85
2023/11/19 12:15:56;;;;;;;16.30;5.93;;;;;;;;;;4931650;28;20732;-87
2023/11/19 12:18:29;;;;;;;19.40;5.70;;;;;;;;;;4977438;28;20750;-83
2023/11/19 12:21:02;;;;;;;23.77;7.23;;;;;;;;;;4946836;28;20229;-85
2023/11/19 12:23:32;;;;;;;24.47;11.70;;;;;;;;;;4946487;28;20233;-85
2023/11/19 12:25:58;;;;;;;42.20;26.17;;;;;;;;;;4951411;28;21035;-85
2023/11/19 12:28:29;;;;;;;22.60;8.63;;;;;;;;;;4930258;28;20214;-83
2023/11/19 12:30:56;;;;;;;29.60;12.10;;;;;;;;;;4946425;28;20273;-87
2023/11/19 12:33:24;;;;;;;36.87;18.30;;;;;;;;;;4963462;28;20218;-89
2023/11/19 12:35:50;;;;;;;26.83;7.97;;;;;;;;;;4961457;28;20226;-87
2023/11/19 12:38:22;;;;;;;24.00;7.17;;;;;;;;;;4959676;28;20231;-88
2023/11/19 12:41:11;;;;;;;17.07;6.07;;;;;;;;;;4943695;28;20233;-88
2023/11/19 12:43:37;;;;;;;18.47;6.53;;;;;;;;;;4962877;28;20338;-87
2023/11/19 12:46:22;;;;;;;24.27;6.50;;;;;;;;;;4945789;28;20250;-83
2023/11/19 12:48:51;;;;;;;19.67;6.17;;;;;;;;;;4945181;28;20236;-87
2023/11/19 12:51:16;;;;;;;17.97;6.17;;;;;;;;;;4941342;28;20218;-84
2023/11/19 12:53:58;;;;;;;17.73;5.90;;;;;;;;;;4936660;28;20273;-84
2023/11/19 12:56:24;;;;;;;18.33;6.77;;;;;;;;;;4962171;28;20272;-86
2023/11/19 12:58:51;;;;;;;25.80;6.13;;;;;;;;;;4947775;28;20222;-86
2023/11/19 13:01:19;;;;;;;24.70;6.80;;;;;;;;;;4945553;28;20222;-86
2023/11/19 13:03:48;;;;;;;21.30;6.50;;;;;;;;;;4939417;28;20694;-85
2023/11/19 13:06:15;;;;;;;20.83;6.93;;;;;;;;;;4958200;28;20547;-86
2023/11/19 13:08:48;;;;;;;23.23;7.17;;;;;;;;;;4946086;28;20664;-85
2023/11/19 13:11:14;;;;;;;20.77;6.20;;;;;;;;;;4960212;28;20222;-85
2023/11/19 13:13:56;;;;;;;23.93;6.60;;;;;;;;;;4943736;28;20226;-86
2023/11/19 13:16:22;;;;;;;23.23;6.30;;;;;;;;;;4949552;28;20222;-85
2023/11/19 13:18:51;;;;;;;21.50;6.43;;;;;;;;;;4965389;28;20221;-85
2023/11/19 13:21:19;;;;;;;26.30;6.77;;;;;;;;;;4953569;28;20222;-85
2023/11/19 13:23:50;;;;;;;26.07;6.53;;;;;;;;;;4962597;28;20224;-82
2023/11/19 13:26:18;;;;;;;21.27;6.13;;;;;;;;;;4962523;28;20357;-85
2023/11/19 13:28:49;;;;;;;21.93;7.20;;;;;;;;;;4956414;28;20218;-86
2023/11/19 13:31:17;;;;;;;16.97;6.13;;;;;;;;;;4938383;28;20222;-85
2023/11/19 13:33:43;;;;;;;19.23;5.63;;;;;;;;;;4962787;28;20234;-85
2023/11/19 13:36:09;;;;;;;27.50;6.43;;;;;;;;;;4957965;28;20227;-86
2023/11/19 13:38:39;;;;;;;23.97;6.37;;;;;;;;;;4948301;28;20233;-88
2023/11/19 13:41:09;;;;;;;23.30;6.03;;;;;;;;;;4961582;28;20226;-85
2023/11/19 13:43:35;;;;;;;18.17;5.80;;;;;;;;;;4935239;28;20288;-88
2023/11/19 13:46:05;;;;;;;19.23;5.97;;;;;;;;;;4973775;28;20285;-85
2023/11/19 13:48:31;;;;;;;21.03;5.73;;;;;;;;;;4963927;28;20226;-86
2023/11/19 13:50:56;;;;;;;15.50;5.57;;;;;;;;;;4955689;28;20240;-86
2023/11/19 13:53:23;;;;;;;16.13;4.47;;;;;;;;;;4975548;28;20237;-85
2023/11/19 13:55:51;;;;;;;13.90;4.50;;;;;;;;;;4928352;28;20230;-86
2023/11/19 13:58:17;;;;;;;11.60;3.80;;;;;;;;;;4959239;28;20225;-85
2023/11/19 14:00:45;;;;;;;17.83;4.90;;;;;;;;;;4956388;28;20775;-85
2023/11/19 14:03:11;;;;;;;10.20;3.40;;;;;;;;;;4957614;28;20367;-86
2023/11/19 14:05:41;;;;;;;9.23;3.20;;;;;;;;;;4966808;28;20222;-85
2023/11/19 14:08:15;;;;;;;8.97;5.63;;;;;;;;;;4981871;28;20252;-83
2023/11/19 14:10:43;;;;;;;11.37;6.63;;;;;;;;;;4968000;28;20314;-85
2023/11/19 14:13:12;;;;;;;10.43;5.10;;;;;;;;;;4970045;28;20229;-81
2023/11/19 14:15:42;;;;;;;8.27;3.73;;;;;;;;;;4968777;28;20288;-84
2023/11/19 14:18:10;;;;;;;6.20;2.93;;;;;;;;;;4947063;28;20226;-83
2023/11/19 14:20:39;;;;;;;5.20;2.53;;;;;;;;;;4980316;28;20361;-85
2023/11/19 14:23:07;;;;;;;5.77;2.57;;;;;;;;;;4980743;28;20230;-86
2023/11/19 14:25:32;;;;;;;5.37;2.23;;;;;;;;;;4947881;28;20229;-85
2023/11/19 14:27:58;;;;;;;6.60;3.13;;;;;;;;;;4968693;28;20245;-85
2023/11/19 14:30:24;;;;;;;8.77;3.07;;;;;;;;;;4949617;28;20684;-80
2023/11/19 14:32:53;;;;;;;11.07;8.73;;;;;;;;;;4964720;28;20818;-84
2023/11/19 14:35:20;;;;;;;5.53;2.97;;;;;;;;;;4948289;28;20214;-84
2023/11/19 14:37:45;;;;;;;4.20;2.77;;;;;;;;;;4963555;28;20569;-83
2023/11/19 14:40:13;;;;;;;4.73;2.60;;;;;;;;;;4950032;28;20222;-84